Holbrook, AZ

8:30 AM MST on September 02, 2014 (GMT -0700)
Show Low Municipal | Change Station
CLOSE
Current Station
Airport
Location: Show Low,
Elevation: 6414 ft
Nearby Weather Stations

Elev 6414 ft 34.27 °N, 110.00 °W | Updated 15 minutes ago

Clear
Clear
72 °F
Feels Like 72 °F
N
0
Wind Variable Wind from North

Today
High -- | Low -- °F
--% Chance of Precip.
Yesterday
High -- | Low -- °F
Precip. -- in
5:54 AM 6:45 PM
First Quarter, 52% visible
Pressure 30.27 in
Visibility 10.0 miles
Clouds Clear
Dew Point 36 °F
Humidity 27%
Rainfall 0.00 in
Snow Depth Not available.
UV 3 out of 12
Pollen 6.90 out of 12
Air Quality Not available.
Flu Activity Not available.
METAR KSOW 021515Z AUTO 00000KT 10SM CLR 22/02 A3027 RMK AO2

More Conditions Fewer Conditions

Pressure 30.27 in
Visibility 10.0 miles
Clouds Clear
Dew Point 36 °F
Humidity 27%
Rainfall 0.00 in
Snow Depth Not available.
UV 3 out of 12
Pollen 6.90 out of 12
Air Quality Not available.
Flu Activity Not available.
METAR KSOW 021515Z AUTO 00000KT 10SM CLR 22/02 A3027 RMK AO2

More Conditions Fewer Conditions

10-Day Weather Forecast

Almanac

Astronomy

Sep. 02, 2014 Rise Set
Actual Time 5:54 AM MST 6:45 PM MST
Civil Twilight 5:28 AM MST 7:11 PM MST
Nautical Twilight 4:57 AM MST 7:41 PM MST
Astronomical Twilight 4:26 AM MST 8:13 PM MST
Moon 1:25 PM MST 11:59 PM MST
Length of Visible Light 13h 43m
Length of Day
12h 51m
Tomorrow will be 2m 5s shorter.
First Quarter, 52% of the Moon is Illuminated
Today
First Quarter
Sep 8
Full
Sep 15
Last Quarter
Sep 24
New
Oct 1
First Quarter

Today's Extremes

State Highs State Lows

Community

WunderPhotos

Upload Photos

1,749,700 photos uploaded!

Nearby

Snow Depth

Station Depth Elevation
Promontory 0 in 7930 ft
Happy Jack 0 in 7630 ft
Mormon Mountain 0 in 7500 ft
Maverick Fork 0 in 9200 ft
Workman Creek 1 in 6900 ft

Earthquake Activity

City Distance Mag. Time & Date
No recent earthquake activity has been reported nearby.
Minimum magnitude displayed is 2.5.

Coastal Water Temperatures

Place Temperature
No Stations Reporting

Nearby Weather Stations